Time;durP1;ratioP1;P1;durP2;ratioP2;P2;SDS_P1;SDS_P2;PMS_P1;PMS_P2;Temp;Humidity;BMP_temperature;BMP_pressure;BME280_temperature;BME280_humidity;BME280_pressure;Samples;Min_cycle;Max_cycle;Signal;HPM_P1;HPM_P2
2022/01/10 00:02:00;;;;;;;84.03;36.80;;;;;;;7.61;100.00;98656.09;5032729;28;20025;-65
2022/01/10 00:04:25;;;;;;;87.25;38.78;;;;;;;7.63;100.00;98651.78;5032359;28;20025;-65
2022/01/10 00:06:51;;;;;;;84.30;35.72;;;;;;;7.51;100.00;98646.34;5032724;28;20392;-65
2022/01/10 00:09:16;;;;;;;81.10;35.38;;;;;;;7.48;100.00;98647.31;5032848;28;20487;-64
2022/01/10 00:11:42;;;;;;;80.20;34.80;;;;;;;7.70;100.00;98678.50;5032392;28;20021;-65
2022/01/10 00:14:07;;;;;;;78.03;35.42;;;;;;;7.44;100.00;98639.91;5032563;28;20435;-65
2022/01/10 00:16:33;;;;;;;80.80;36.00;;;;;;;8.04;100.00;98717.72;5030979;28;20451;-65
2022/01/10 00:18:58;;;;;;;76.35;36.47;;;;;;;8.00;100.00;98706.88;5032126;28;20025;-65
2022/01/10 00:21:23;;;;;;;75.68;37.05;;;;;;;8.01;100.00;98717.81;5032071;28;20083;-65
2022/01/10 00:23:49;;;;;;;78.05;35.42;;;;;;;7.93;100.00;98710.50;5032545;28;20579;-65
2022/01/10 00:26:14;;;;;;;71.45;35.20;;;;;;;8.00;100.00;98704.34;5031006;28;20033;-65
2022/01/10 00:28:40;;;;;;;73.43;34.75;;;;;;;8.04;100.00;98721.06;5032298;28;20026;-65
2022/01/10 00:31:06;;;;;;;75.72;36.10;;;;;;;7.49;100.00;98625.38;5030784;28;20036;-66
2022/01/10 00:33:31;;;;;;;79.03;35.65;;;;;;;8.04;100.00;98723.59;5032257;28;20025;-65
2022/01/10 00:35:56;;;;;;;77.40;37.80;;;;;;;7.58;100.00;98642.72;5031982;28;20033;-66
2022/01/10 00:38:22;;;;;;;78.60;38.08;;;;;;;8.04;100.00;98722.78;5032183;28;20116;-65
2022/01/10 00:40:49;;;;;;;79.47;37.40;;;;;;;8.05;100.00;98719.34;5030775;28;20030;-65
2022/01/10 00:43:19;;;;;;;70.03;35.70;;;;;;;7.71;100.00;98664.97;5030766;28;20029;-65
2022/01/10 00:45:44;;;;;;;79.00;37.80;;;;;;;7.53;100.00;98630.25;5031895;28;20049;-65
2022/01/10 00:48:10;;;;;;;76.65;37.17;;;;;;;8.10;100.00;98722.53;5031821;28;20025;-66
2022/01/10 00:50:36;;;;;;;76.97;38.00;;;;;;;8.09;100.00;98718.34;5030306;28;20454;-65
2022/01/10 00:53:02;;;;;;;74.32;37.60;;;;;;;8.07;100.00;98723.47;5031864;28;20123;-65
2022/01/10 00:55:29;;;;;;;75.03;37.95;;;;;;;8.02;100.00;98711.88;5031624;28;20087;-65
2022/01/10 00:57:55;;;;;;;71.25;37.30;;;;;;;7.98;100.00;98695.16;5030324;28;20038;-65
2022/01/10 01:02:58;;;;;;;68.45;34.90;;;;;;;8.06;100.00;98703.28;4210516;22;10000703;-65
2022/01/10 01:05:25;;;;;;;62.10;33.08;;;;;;;7.71;100.00;98629.56;4989489;28;20133;-65
2022/01/10 01:07:51;;;;;;;60.90;32.83;;;;;;;7.94;100.00;98694.47;4991768;28;20027;-65
2022/01/10 01:16:17;;;;;;;61.85;32.63;;;;;;;8.07;100.00;98698.16;4992267;28;20034;-65
2022/01/10 01:26:27;;;;;;;59.03;32.05;;;;;;;7.98;100.00;98673.22;4991724;28;20058;-66
2022/01/10 01:28:53;;;;;;;59.70;31.45;;;;;;;7.85;100.00;98649.25;4991987;28;20064;-66
2022/01/10 01:31:18;;;;;;;56.47;31.13;;;;;;;8.09;100.00;98688.81;4991763;28;20037;-66
2022/01/10 01:33:44;;;;;;;60.70;32.40;;;;;;;8.11;100.00;98696.34;4991936;28;20463;-66
2022/01/10 01:36:09;;;;;;;64.43;33.75;;;;;;;7.64;100.00;98613.00;4991272;28;20042;-66
2022/01/10 01:38:36;;;;;;;60.47;32.45;;;;;;;7.70;100.00;98612.75;4991739;28;20129;-66
2022/01/10 01:43:59;;;;;;;61.88;32.22;;;;;;;8.14;100.00;98686.09;4994513;28;20042;-66
2022/01/10 01:46:25;;;;;;;59.42;31.83;;;;;;;8.16;100.00;98705.38;4991279;28;20091;-65
2022/01/10 01:48:52;;;;;;;63.97;33.47;;;;;;;8.12;100.00;98676.00;4991564;28;20113;-66
2022/01/10 01:51:19;;;;;;;57.88;33.05;;;;;;;7.85;100.00;98637.44;4991527;28;20036;-65
2022/01/10 01:53:45;;;;;;;61.50;33.55;;;;;;;7.98;100.00;98642.88;4991362;28;20484;-66
2022/01/10 01:56:12;;;;;;;62.03;33.55;;;;;;;8.20;100.00;98696.78;4991267;28;20031;-65
2022/01/10 01:58:39;;;;;;;54.42;31.10;;;;;;;8.19;100.00;98681.66;4991107;28;20099;-66
2022/01/10 02:01:06;;;;;;;52.00;29.67;;;;;;;7.40;100.00;98554.94;4990993;28;20089;-66
2022/01/10 02:03:38;;;;;;;58.08;31.27;;;;;;;7.96;100.00;98643.81;4991383;28;20059;-66
2022/01/10 02:06:04;;;;;;;52.33;29.48;;;;;;;8.03;100.00;98666.28;4991264;28;20512;-66
2022/01/10 02:08:30;;;;;;;52.75;29.23;;;;;;;7.67;100.00;98617.09;4991171;28;20043;-66
2022/01/10 02:10:56;;;;;;;53.13;29.65;;;;;;;7.69;100.00;98620.38;4990025;28;20052;-65
2022/01/10 02:13:21;;;;;;;53.92;29.65;;;;;;;7.54;100.00;98596.53;4989435;28;20420;-65
2022/01/10 02:15:57;;;;;;;54.20;29.52;;;;;;;8.07;100.00;98684.69;4990799;28;20076;-66
2022/01/10 02:18:23;;;;;;;53.60;29.58;;;;;;;8.14;100.00;98704.63;4991242;28;20026;-66
2022/01/10 02:20:49;;;;;;;51.03;28.75;;;;;;;7.86;100.00;98638.28;4991266;28;20038;-66
2022/01/10 02:23:16;;;;;;;59.15;31.38;;;;;;;8.11;100.00;98701.38;4990050;28;20087;-66
2022/01/10 02:25:43;;;;;;;53.45;29.95;;;;;;;7.63;100.00;98602.91;4989681;28;20124;-66
2022/01/10 02:28:08;;;;;;;54.95;30.88;;;;;;;7.34;100.00;98572.88;4991000;28;20058;-66
2022/01/10 02:30:34;;;;;;;60.83;31.52;;;;;;;8.02;100.00;98684.03;4991103;28;20117;-66
2022/01/10 02:33:01;;;;;;;53.65;30.35;;;;;;;7.64;100.00;98614.69;4990879;28;20054;-66
2022/01/10 02:35:47;;;;;;;56.70;30.05;;;;;;;8.10;100.00;98707.34;4991187;28;20033;-66
2022/01/10 02:38:12;;;;;;;54.85;30.50;;;;;;;7.50;100.00;98592.47;4989550;28;20144;-67
2022/01/10 02:40:38;;;;;;;59.47;31.30;;;;;;;8.08;100.00;98683.81;4989420;28;20129;-66
2022/01/10 02:43:07;;;;;;;57.97;31.08;;;;;;;7.61;100.00;98609.72;4990928;28;20396;-66
2022/01/10 02:45:33;;;;;;;58.50;31.08;;;;;;;7.68;100.00;98608.63;4989733;28;20062;-66
2022/01/10 02:47:59;;;;;;;53.80;31.13;;;;;;;8.09;100.00;98681.22;4990943;28;20548;-66
2022/01/10 02:50:25;;;;;;;56.13;31.20;;;;;;;7.74;100.00;98626.09;4989339;28;20085;-66
2022/01/10 02:52:51;;;;;;;54.92;29.95;;;;;;;8.17;100.00;98691.88;4990855;28;20113;-65
2022/01/10 02:55:16;;;;;;;52.13;29.33;;;;;;;7.73;100.00;98622.75;4990857;28;20507;-65
2022/01/10 02:57:43;;;;;;;55.20;29.52;;;;;;;7.77;100.00;98621.75;4989283;28;20113;-65
2022/01/10 03:00:17;;;;;;;54.90;29.80;;;;;;;7.93;100.00;98659.91;4991018;28;20034;-65
2022/01/10 03:02:44;;;;;;;50.90;29.23;;;;;;;8.06;100.00;98683.84;4990917;28;20081;-66
2022/01/10 03:05:11;;;;;;;49.50;28.63;;;;;;;7.66;100.00;98610.41;4990690;28;20033;-65
2022/01/10 03:07:37;;;;;;;48.40;28.33;;;;;;;8.06;100.00;98685.56;4990601;28;20447;-66
2022/01/10 03:10:04;;;;;;;47.25;27.45;;;;;;;8.06;100.00;98683.03;4990659;28;20041;-66
2022/01/10 03:12:31;;;;;;;46.08;26.98;;;;;;;7.99;100.00;98662.22;4991059;28;20034;-65
2022/01/10 03:14:58;;;;;;;45.65;27.05;;;;;;;8.03;100.00;98673.84;4990713;28;20615;-65
2022/01/10 03:17:24;;;;;;;46.45;26.02;;;;;;;7.76;100.00;98635.25;4990346;28;20121;-65
2022/01/10 03:19:49;;;;;;;43.53;25.75;;;;;;;7.71;100.00;98626.19;4990654;28;20041;-65
2022/01/10 03:22:15;;;;;;;43.72;25.33;;;;;;;7.73;100.00;98607.56;4990345;28;20034;-65
2022/01/10 03:24:40;;;;;;;41.78;24.95;;;;;;;7.74;100.00;98624.38;4992743;28;20057;-65
2022/01/10 03:27:06;;;;;;;41.95;24.67;;;;;;;8.15;100.00;98700.38;4992870;28;20573;-65
2022/01/10 03:29:31;;;;;;;38.75;23.42;;;;;;;7.86;100.00;98666.09;4994434;28;20503;-65
2022/01/10 03:31:57;;;;;;;41.95;23.02;;;;;;;7.65;100.00;98618.84;4993833;28;20030;-65
2022/01/10 03:34:22;;;;;;;41.20;23.70;;;;;;;8.12;100.00;98715.72;4992561;28;20345;-65
2022/01/10 03:36:48;;;;;;;41.47;24.33;;;;;;;7.72;100.00;98648.94;4993804;28;20030;-65
2022/01/10 03:39:13;;;;;;;44.55;25.95;;;;;;;8.16;100.00;98718.03;4993659;28;20118;-65
2022/01/10 03:41:40;;;;;;;40.92;23.88;;;;;;;8.18;100.00;98726.41;4993823;28;20504;-65
2022/01/10 03:44:07;;;;;;;40.15;23.08;;;;;;;8.06;100.00;98700.75;4993981;28;20455;-65
2022/01/10 03:46:33;;;;;;;42.20;23.40;;;;;;;7.97;100.00;98694.34;4993589;28;20042;-65
2022/01/10 03:49:04;;;;;;;38.63;23.10;;;;;;;7.40;100.00;98582.75;4992363;28;20507;-64
2022/01/10 03:51:29;;;;;;;42.40;24.33;;;;;;;7.87;100.00;98693.03;4992036;28;20477;-65
2022/01/10 03:53:55;;;;;;;41.78;24.85;;;;;;;7.66;100.00;98653.38;4992174;28;20042;-65
2022/01/10 03:56:22;;;;;;;41.75;24.20;;;;;;;7.66;100.00;98650.84;4993351;28;20488;-65
2022/01/10 03:58:48;;;;;;;38.60;23.13;;;;;;;8.01;100.00;98717.81;4992180;28;20066;-65
2022/01/10 04:01:13;;;;;;;40.67;23.13;;;;;;;7.26;100.00;98592.53;4993400;28;20545;-65
2022/01/10 04:03:40;;;;;;;39.22;23.13;;;;;;;8.07;100.00;98723.47;4993211;28;20046;-65
2022/01/10 04:06:06;;;;;;;40.63;22.67;;;;;;;7.56;100.00;98647.03;4991910;28;20034;-65
2022/01/10 04:08:32;;;;;;;39.15;23.20;;;;;;;7.98;100.00;98705.28;4993157;28;20480;-65
2022/01/10 04:10:58;;;;;;;38.33;21.88;;;;;;;7.42;100.00;98641.66;4993302;28;20034;-65
2022/01/10 04:13:24;;;;;;;42.47;23.85;;;;;;;7.51;100.00;98652.25;4991928;28;20062;-65
2022/01/10 04:15:50;;;;;;;41.67;25.92;;;;;;;7.50;100.00;98660.72;4992931;28;20563;-65
2022/01/10 04:18:16;;;;;;;45.33;26.42;;;;;;;7.75;100.00;98690.97;4993104;28;20030;-65
2022/01/10 04:20:43;;;;;;;43.58;25.38;;;;;;;7.91;100.00;98722.41;4993566;28;20477;-65
2022/01/10 04:23:09;;;;;;;42.55;24.95;;;;;;;7.82;100.00;98707.56;4991710;28;20030;-65
2022/01/10 04:25:34;;;;;;;39.92;23.90;;;;;;;7.96;100.00;98734.88;4993192;28;20416;-65
2022/01/10 04:28:00;;;;;;;37.70;22.55;;;;;;;7.62;100.00;98679.66;4992975;28;20114;-65
2022/01/10 04:30:25;;;;;;;37.60;22.20;;;;;;;7.62;100.00;98672.91;4992755;28;20039;-65
2022/01/10 04:32:51;;;;;;;40.47;23.30;;;;;;;8.03;100.00;98726.16;4992788;28;20515;-65
2022/01/10 04:35:17;;;;;;;38.70;22.92;;;;;;;8.02;100.00;98727.06;4992495;28;20147;-65
2022/01/10 04:37:42;;;;;;;40.05;23.48;;;;;;;8.01;100.00;98743.94;4991457;28;20105;-65
2022/01/10 04:40:09;;;;;;;36.67;22.23;;;;;;;7.33;100.00;98621.78;4991419;28;20507;-65
2022/01/10 04:42:35;;;;;;;35.53;21.38;;;;;;;8.06;100.00;98737.00;4991378;28;20088;-67
2022/01/10 04:45:01;;;;;;;37.75;21.05;;;;;;;7.70;100.00;98675.97;4991141;28;20035;-67
2022/01/10 04:47:26;;;;;;;37.42;21.70;;;;;;;7.67;100.00;98673.56;4991091;28;20125;-65
2022/01/10 04:50:17;;;;;;;35.97;21.52;;;;;;;8.15;100.00;98761.13;4990909;28;20035;-65
2022/01/10 04:52:44;;;;;;;34.80;21.02;;;;;;;7.78;100.00;98711.09;4991264;28;20030;-67
2022/01/10 04:55:11;;;;;;;34.28;21.58;;;;;;;8.14;100.00;98757.75;4992254;28;20054;-66
2022/01/10 04:57:36;;;;;;;35.53;20.42;;;;;;;7.97;100.00;98741.56;4991011;28;20100;-64
2022/01/10 05:00:04;;;;;;;35.67;20.73;;;;;;;7.57;100.00;98667.19;4992387;28;20030;-67
2022/01/10 05:02:29;;;;;;;35.42;20.08;;;;;;;8.07;100.00;98758.91;4987480;28;20038;-66
2022/01/10 05:04:55;;;;;;;36.38;20.88;;;;;;;8.10;100.00;98765.56;4990870;28;20033;-65
2022/01/10 05:07:20;;;;;;;36.03;19.95;;;;;;;7.97;100.00;98760.13;4991833;28;20034;-65
2022/01/10 05:09:45;;;;;;;41.45;20.85;;;;;;;7.96;100.00;98752.59;4992168;28;20037;-65
2022/01/10 05:12:12;;;;;;;36.95;19.70;;;;;;;7.93;100.00;98762.81;4991907;28;20026;-66
2022/01/10 05:14:37;;;;;;;39.65;20.75;;;;;;;7.52;100.00;98684.25;4992037;28;20026;-66
2022/01/10 05:17:03;;;;;;;39.50;21.95;;;;;;;7.54;100.00;98679.13;4991838;28;20026;-67
2022/01/10 05:19:28;;;;;;;37.47;20.58;;;;;;;7.68;100.00;98707.25;4990415;28;20535;-66
2022/01/10 05:21:54;;;;;;;38.25;20.90;;;;;;;8.05;100.00;98758.13;4990535;28;20038;-66
2022/01/10 05:24:19;;;;;;;39.70;21.27;;;;;;;8.07;100.00;98771.56;4991861;28;20034;-66
2022/01/10 05:26:45;;;;;;;37.13;20.65;;;;;;;7.61;100.00;98691.47;4991958;28;20038;-67
2022/01/10 05:29:10;;;;;;;36.20;20.10;;;;;;;8.14;100.00;98774.69;4991716;28;20033;-67
2022/01/10 05:31:35;;;;;;;36.00;20.35;;;;;;;8.06;100.00;98761.50;4991286;28;20034;-66
2022/01/10 05:34:02;;;;;;;35.22;19.38;;;;;;;7.63;100.00;98682.13;4991549;28;20593;-67
2022/01/10 05:36:28;;;;;;;38.85;20.42;;;;;;;7.63;100.00;98687.19;4991527;28;20069;-66
2022/01/10 05:38:53;;;;;;;35.40;19.02;;;;;;;8.17;100.00;98785.50;4991490;28;20069;-67
2022/01/10 05:41:21;;;;;;;35.25;19.23;;;;;;;8.13;100.00;98767.97;4990074;28;20038;-66
2022/01/10 05:43:47;;;;;;;37.80;20.30;;;;;;;8.14;100.00;98789.88;4991573;28;20056;-66
2022/01/10 05:46:15;;;;;;;34.55;19.63;;;;;;;7.83;100.00;98722.69;4991048;28;20484;-66
2022/01/10 05:48:46;;;;;;;35.90;20.02;;;;;;;7.81;100.00;98723.63;4991394;28;20032;-64
2022/01/10 05:51:11;;;;;;;35.80;20.03;;;;;;;7.69;100.00;98698.78;4991638;28;20034;-66
2022/01/10 05:53:37;;;;;;;34.40;19.13;;;;;;;7.99;100.00;98750.78;4991454;28;20425;-64
2022/01/10 05:56:03;;;;;;;36.75;19.88;;;;;;;7.90;100.00;98730.88;4991114;28;20472;-64
2022/01/10 05:58:28;;;;;;;38.35;20.13;;;;;;;8.24;100.00;98791.97;4990160;28;20743;-65
2022/01/10 06:00:53;;;;;;;35.15;19.48;;;;;;;7.78;100.00;98716.16;4988929;28;20531;-65
2022/01/10 06:03:19;;;;;;;40.30;22.15;;;;;;;7.46;100.00;98663.41;4989611;28;20066;-65
2022/01/10 06:05:44;;;;;;;41.33;23.42;;;;;;;7.70;100.00;98705.50;4991453;28;20085;-66
2022/01/10 06:08:10;;;;;;;36.92;21.27;;;;;;;8.23;100.00;98790.34;4991322;28;20058;-65
2022/01/10 06:10:36;;;;;;;37.28;20.80;;;;;;;7.82;100.00;98727.81;4991073;28;20033;-65
2022/01/10 06:13:01;;;;;;;40.75;23.40;;;;;;;8.26;100.00;98817.28;4991160;28;20030;-65
2022/01/10 06:15:27;;;;;;;41.03;23.20;;;;;;;8.26;100.00;98819.81;4989035;28;20053;-65
2022/01/10 06:17:53;;;;;;;39.17;23.27;;;;;;;8.32;100.00;98820.38;4990049;28;20113;-65
2022/01/10 06:20:19;;;;;;;35.13;20.33;;;;;;;8.17;100.00;98794.81;4990379;28;20026;-64
2022/01/10 06:22:45;;;;;;;37.38;20.52;;;;;;;8.25;100.00;98816.47;4990398;28;20034;-64
2022/01/10 06:25:14;;;;;;;34.72;19.30;;;;;;;7.86;100.00;98767.28;4990139;28;20455;-63
2022/01/10 06:27:40;;;;;;;40.08;22.00;;;;;;;8.29;100.00;98828.13;4990160;28;20026;-63
2022/01/10 06:30:06;;;;;;;39.63;22.60;;;;;;;8.30;100.00;98834.81;4990345;28;20045;-64
2022/01/10 06:32:32;;;;;;;35.15;19.83;;;;;;;8.27;100.00;98824.81;4991067;28;20406;-64
2022/01/10 06:34:57;;;;;;;39.15;21.75;;;;;;;7.79;100.00;98750.69;4991047;28;20519;-64
2022/01/10 06:37:25;;;;;;;38.45;20.70;;;;;;;7.84;100.00;98762.25;4990793;28;20039;-64
2022/01/10 06:39:52;;;;;;;41.20;21.08;;;;;;;8.09;100.00;98782.44;4990838;28;20085;-65
2022/01/10 06:42:19;;;;;;;41.03;21.20;;;;;;;8.27;100.00;98827.34;4989486;28;20030;-67
2022/01/10 06:44:45;;;;;;;44.78;22.65;;;;;;;8.25;100.00;98824.06;4990796;28;20045;-64
2022/01/10 06:47:11;;;;;;;44.30;22.60;;;;;;;7.85;100.00;98755.50;4989576;28;20023;-66
2022/01/10 06:49:36;;;;;;;46.88;24.52;;;;;;;7.80;100.00;98745.56;4991001;28;20077;-64
2022/01/10 06:52:02;;;;;;;45.20;23.17;;;;;;;8.25;100.00;98826.59;4990851;28;20049;-64
2022/01/10 06:54:28;;;;;;;47.83;23.90;;;;;;;7.75;100.00;98746.59;4990670;28;20030;-64
2022/01/10 06:56:58;;;;;;;40.78;22.10;;;;;;;8.25;100.00;98824.06;4990639;28;20052;-64
2022/01/10 06:59:27;;;;;;;36.30;19.80;;;;;;;8.26;100.00;98830.75;4992388;28;20121;-64
2022/01/10 07:01:55;;;;;;;40.72;21.70;;;;;;;7.81;100.00;98752.28;4994547;28;20062;-65
2022/01/10 07:04:22;;;;;;;43.30;21.67;;;;;;;7.54;100.00;98712.81;4994643;28;20457;-63
2022/01/10 07:06:48;;;;;;;35.78;20.58;;;;;;;8.29;100.00;98829.81;4994404;28;20057;-63
2022/01/10 07:09:13;;;;;;;35.50;19.90;;;;;;;8.32;100.00;98832.25;4994482;28;20488;-63
2022/01/10 07:11:39;;;;;;;41.30;22.00;;;;;;;7.83;100.00;98752.22;4992790;28;20416;-66
2022/01/10 07:14:05;;;;;;;33.28;20.38;;;;;;;8.34;100.00;98843.94;4994238;28;20515;-64
2022/01/10 07:16:30;;;;;;;36.97;20.80;;;;;;;7.81;100.00;98752.28;4994359;28;20547;-64
2022/01/10 07:18:56;;;;;;;36.67;19.77;;;;;;;7.55;100.00;98698.47;4994327;28;20030;-63
2022/01/10 07:21:21;;;;;;;34.63;18.90;;;;;;;7.76;100.00;98730.56;4994320;28;20484;-66
2022/01/10 07:23:48;;;;;;;35.00;19.67;;;;;;;8.34;100.00;98838.88;4994191;28;20491;-63
2022/01/10 07:26:14;;;;;;;31.25;19.15;;;;;;;8.02;100.00;98775.97;4992541;28;20033;-63
2022/01/10 07:28:39;;;;;;;30.85;18.70;;;;;;;8.39;100.00;98843.78;4993943;28;20069;-63
2022/01/10 07:31:05;;;;;;;31.38;17.33;;;;;;;8.45;100.00;98853.69;4994223;28;20035;-63
2022/01/10 07:33:31;;;;;;;31.98;18.30;;;;;;;8.48;100.00;98853.56;4994073;28;20049;-65
2022/01/10 07:35:56;;;;;;;31.42;18.55;;;;;;;8.07;100.00;98784.19;4993932;28;20030;-63
2022/01/10 07:38:23;;;;;;;33.55;19.02;;;;;;;8.06;100.00;98787.59;4993812;28;20088;-64
2022/01/10 07:40:49;;;;;;;32.38;19.30;;;;;;;8.02;100.00;98777.66;4992210;28;20034;-63
2022/01/10 07:43:14;;;;;;;38.72;20.60;;;;;;;8.20;100.00;98813.22;4993945;28;20037;-64
2022/01/10 07:45:40;;;;;;;40.38;20.20;;;;;;;8.43;100.00;98847.84;4992618;28;20058;-64
2022/01/10 07:48:06;;;;;;;39.38;21.00;;;;;;;8.10;100.00;98784.06;4993738;28;20576;-64
2022/01/10 07:50:31;;;;;;;37.20;20.70;;;;;;;8.55;100.00;98872.72;4993573;28;20042;-64
2022/01/10 07:52:57;;;;;;;41.97;22.95;;;;;;;8.50;100.00;98859.38;4993980;28;20087;-64
2022/01/10 07:55:22;;;;;;;43.20;22.95;;;;;;;8.60;100.00;98866.59;4993599;28;20113;-64
2022/01/10 07:57:48;;;;;;;38.80;21.30;;;;;;;8.51;100.00;98861.06;4992402;28;20683;-64
2022/01/10 08:00:13;;;;;;;38.63;20.77;;;;;;;8.53;100.00;98870.25;4993480;28;20445;-64
2022/01/10 08:02:39;;;;;;;39.65;21.83;;;;;;;8.15;100.00;98806.69;4993049;28;20053;-64
2022/01/10 08:05:07;;;;;;;37.65;21.02;;;;;;;8.57;100.00;98871.78;4993286;28;20114;-64
2022/01/10 08:07:33;;;;;;;38.47;19.95;;;;;;;8.20;100.00;98808.16;4993344;28;20087;-64
2022/01/10 08:09:58;;;;;;;33.72;20.20;;;;;;;8.61;100.00;98878.38;4992508;28;20038;-64
2022/01/10 08:12:24;;;;;;;35.30;19.83;;;;;;;8.21;100.00;98807.28;4993238;28;20058;-64
2022/01/10 08:14:50;;;;;;;34.08;19.70;;;;;;;7.93;100.00;98765.34;4993412;28;20113;-64
2022/01/10 08:17:15;;;;;;;35.05;22.27;;;;;;;8.70;100.00;98880.56;4992976;28;20125;-64
2022/01/10 08:19:41;;;;;;;32.03;21.88;;;;;;;8.69;100.00;98873.81;4993203;28;20118;-63
2022/01/10 08:22:07;;;;;;;32.67;19.67;;;;;;;8.75;100.00;98891.31;4993087;28;20032;-64
2022/01/10 08:24:33;;;;;;;31.30;19.02;;;;;;;8.81;100.00;98905.50;4992841;28;20057;-64
2022/01/10 08:26:59;;;;;;;30.42;19.33;;;;;;;8.42;100.00;98821.69;4993171;28;20042;-64
2022/01/10 08:29:25;;;;;;;32.95;20.15;;;;;;;8.93;100.00;98896.59;4993132;28;20030;-64
2022/01/10 08:31:50;;;;;;;31.10;18.80;;;;;;;8.16;100.00;98781.31;4993014;28;20030;-63
2022/01/10 08:34:16;;;;;;;32.60;18.73;;;;;;;8.83;100.00;98892.75;4992892;28;20031;-63
2022/01/10 08:36:41;;;;;;;32.50;18.00;;;;;;;8.78;100.00;98880.25;4992706;28;20030;-64
2022/01/10 08:39:08;;;;;;;30.00;18.85;;;;;;;8.51;100.00;98835.72;4992604;28;20038;-64
2022/01/10 08:41:35;;;;;;;29.38;18.63;;;;;;;8.43;100.00;98818.31;4992893;28;20042;-64
2022/01/10 08:44:02;;;;;;;28.27;16.60;;;;;;;8.93;100.00;98904.19;4992825;28;20042;-64
2022/01/10 08:46:27;;;;;;;30.65;17.92;;;;;;;8.81;100.00;98887.75;4992391;28;20040;-64
2022/01/10 08:48:53;;;;;;;27.13;16.80;;;;;;;8.43;100.00;98818.31;4992690;28;20022;-64
2022/01/10 08:51:18;;;;;;;28.92;17.95;;;;;;;8.95;100.00;98903.25;4992460;28;20427;-64
2022/01/10 08:53:43;;;;;;;31.33;18.08;;;;;;;8.42;100.00;98806.50;4992086;28;20485;-64
2022/01/10 08:56:09;;;;;;;29.17;17.48;;;;;;;9.05;100.00;98891.84;4991084;28;20089;-64
2022/01/10 08:58:35;;;;;;;29.60;18.25;;;;;;;8.52;100.00;98796.84;4992541;28;20100;-64
2022/01/10 09:01:05;;;;;;;31.90;15.70;;;;;;;8.60;100.00;98810.88;4992409;28;20034;-64
2022/01/10 09:03:32;;;;;;;27.02;17.23;;;;;;;8.64;100.00;98814.94;4992238;28;20048;-64
2022/01/10 09:05:57;;;;;;;31.38;17.83;;;;;;;8.65;100.00;98824.19;4992270;28;20460;-64
2022/01/10 09:08:26;;;;;;;30.00;19.63;;;;;;;9.04;100.00;98875.00;4991991;28;20072;-64
2022/01/10 09:10:53;;;;;;;26.33;17.45;;;;;;;8.70;100.00;98821.47;4992333;28;20027;-64
2022/01/10 09:13:20;;;;;;;27.48;16.92;;;;;;;8.98;100.00;98856.66;4990680;28;20033;-64
2022/01/10 09:15:45;;;;;;;28.02;17.73;;;;;;;9.01;100.00;98859.94;4992153;28;20031;-64
2022/01/10 09:18:11;;;;;;;24.33;15.45;;;;;;;8.93;100.00;98856.88;4991887;28;20034;-64
2022/01/10 09:20:36;;;;;;;24.45;15.60;;;;;;;8.97;100.00;98868.53;4991849;28;20084;-65
2022/01/10 09:23:02;;;;;;;23.88;15.35;;;;;;;8.37;100.00;98754.41;4991114;28;20026;-64
2022/01/10 09:25:27;;;;;;;25.75;16.70;;;;;;;8.57;100.00;98795.81;4992130;28;20031;-64
2022/01/10 09:27:54;;;;;;;20.48;15.02;;;;;;;8.74;100.00;98815.38;4991840;28;20030;-64
2022/01/10 09:30:19;;;;;;;24.30;16.00;;;;;;;9.01;100.00;98851.50;4990616;28;20040;-64
2022/01/10 09:32:46;;;;;;;22.92;15.23;;;;;;;8.77;100.00;98821.16;4991767;28;20038;-64
2022/01/10 09:35:11;;;;;;;22.10;14.65;;;;;;;9.00;100.00;98855.72;4991542;28;20049;-64
2022/01/10 09:37:36;;;;;;;21.80;14.35;;;;;;;8.98;100.00;98852.44;4991343;28;20030;-64
2022/01/10 09:40:03;;;;;;;20.67;14.20;;;;;;;8.99;100.00;98859.16;4991820;28;20394;-64
2022/01/10 09:42:28;;;;;;;24.25;15.77;;;;;;;8.54;100.00;98795.91;4991765;28;20038;-64
2022/01/10 09:44:54;;;;;;;23.35;15.25;;;;;;;9.00;100.00;98852.38;4991607;28;20022;-64
2022/01/10 09:47:19;;;;;;;27.17;17.70;;;;;;;8.45;100.00;98765.88;4990230;28;20563;-64
2022/01/10 09:49:45;;;;;;;29.98;19.45;;;;;;;9.02;100.00;98838.75;4991245;28;20460;-64
2022/01/10 09:52:12;;;;;;;34.90;22.80;;;;;;;8.74;100.00;98790.88;4991264;28;20027;-65
2022/01/10 09:54:37;;;;;;;33.72;22.08;;;;;;;9.00;100.00;98845.59;4991406;28;20030;-64
2022/01/10 09:57:03;;;;;;;31.50;20.77;;;;;;;8.65;100.00;98775.22;4991195;28;20042;-65
2022/01/10 09:59:29;;;;;;;33.60;20.58;;;;;;;8.64;100.00;98771.88;4991346;28;20096;-64
2022/01/10 10:01:54;;;;;;;31.33;20.80;;;;;;;9.10;100.00;98838.44;4989950;28;20056;-64
2022/01/10 10:04:20;;;;;;;35.15;22.48;;;;;;;9.14;100.00;98856.00;4989835;28;20061;-64
2022/01/10 10:06:46;;;;;;;31.67;20.55;;;;;;;8.84;100.00;98796.41;4990954;28;20070;-65
2022/01/10 10:09:12;;;;;;;28.58;17.35;;;;;;;8.98;100.00;98831.31;4991162;28;20599;-64
2022/01/10 10:11:38;;;;;;;28.48;18.55;;;;;;;9.07;100.00;98843.66;4991473;28;20027;-65
2022/01/10 10:14:05;;;;;;;31.02;18.95;;;;;;;8.96;100.00;98818.72;4991205;28;20034;-64
2022/01/10 10:16:31;;;;;;;31.27;19.90;;;;;;;9.07;100.00;98833.50;4991115;28;20041;-64
2022/01/10 10:18:58;;;;;;;27.90;19.25;;;;;;;9.09;100.00;98831.75;4989787;28;20068;-64
2022/01/10 10:21:23;;;;;;;33.80;20.90;;;;;;;9.05;100.00;98825.13;4990914;28;20038;-64
2022/01/10 10:23:50;;;;;;;33.47;21.27;;;;;;;8.99;100.00;98800.88;4991192;28;20030;-64
2022/01/10 10:26:24;;;;;;;26.95;19.27;;;;;;;8.66;100.00;98749.00;4989799;28;20030;-64
2022/01/10 10:28:53;;;;;;;31.85;21.02;;;;;;;9.07;100.00;98815.75;4991103;28;20054;-63
2022/01/10 10:31:48;;;;;;;34.15;22.48;;;;;;;9.07;100.00;98828.44;4990850;28;20034;-63
2022/01/10 10:34:33;;;;;;;31.63;21.13;;;;;;;8.61;100.00;98749.22;4976877;28;20038;-63
2022/01/10 10:37:07;;;;;;;32.30;21.75;;;;;;;9.10;100.00;98840.97;4994978;28;20041;-64
2022/01/10 10:39:35;;;;;;;32.58;22.48;;;;;;;8.91;100.00;98799.53;4995018;28;20030;-64
2022/01/10 10:42:04;;;;;;;33.50;23.55;;;;;;;8.75;100.00;98769.72;4995050;28;20031;-63
2022/01/10 10:44:30;;;;;;;37.65;25.65;;;;;;;8.69;100.00;98757.28;4994575;28;20045;-64
2022/01/10 10:46:56;;;;;;;32.55;21.95;;;;;;;8.57;100.00;98751.91;4994613;28;20500;-64
2022/01/10 10:49:30;;;;;;;30.70;20.48;;;;;;;8.90;100.00;98808.00;4994834;28;20121;-64
2022/01/10 10:51:56;;;;;;;25.48;16.75;;;;;;;8.93;100.00;98810.44;4994662;28;20138;-64
2022/01/10 10:54:22;;;;;;;24.83;15.93;;;;;;;8.77;100.00;98795.00;4994780;28;20492;-63
2022/01/10 10:56:48;;;;;;;26.52;17.80;;;;;;;8.97;100.00;98819.56;4993056;28;20058;-64
2022/01/10 10:59:13;;;;;;;27.75;18.42;;;;;;;8.87;100.00;98803.06;4993025;28;20468;-63
2022/01/10 11:01:40;;;;;;;25.38;16.90;;;;;;;8.43;100.00;98736.44;4994484;28;20030;-64
2022/01/10 11:04:11;;;;;;;24.58;16.42;;;;;;;8.95;100.00;98831.47;4993516;28;20432;-63
2022/01/10 11:06:40;;;;;;;24.52;16.15;;;;;;;9.04;100.00;98829.38;4994325;28;20038;-64
2022/01/10 11:09:11;;;;;;;25.90;16.73;;;;;;;8.60;100.00;98754.31;4994532;28;20492;-63
2022/01/10 11:11:37;;;;;;;;;;;;;;;9.10;100.00;98834.19;4994670;28;20428;-64
2022/01/10 11:14:04;;;;;;;28.85;17.85;;;;;;;9.12;100.00;98840.03;4994810;28;19921;-63
2022/01/10 11:16:29;;;;;;;27.55;18.60;;;;;;;9.06;100.00;98827.59;4994439;28;20058;-63
2022/01/10 11:18:55;;;;;;;33.05;20.00;;;;;;;9.13;100.00;98840.88;4992810;28;20500;-64
2022/01/10 11:21:24;;;;;;;29.10;19.77;;;;;;;9.02;100.00;98813.41;4994290;28;20330;-64
2022/01/10 11:23:50;;;;;;;26.15;18.63;;;;;;;8.66;100.00;98759.97;4994127;28;20053;-64
2022/01/10 11:26:17;;;;;;;28.23;18.15;;;;;;;8.87;100.00;98795.47;4993829;28;20496;-64
2022/01/10 11:28:54;;;;;;;26.48;17.45;;;;;;;8.67;100.00;98751.50;4994121;28;20038;-64
2022/01/10 11:31:23;;;;;;;27.50;18.15;;;;;;;9.02;100.00;98802.44;4994040;28;20034;-65
2022/01/10 11:33:51;;;;;;;28.52;18.88;;;;;;;9.18;100.00;98832.19;4994008;28;20034;-63